createdAt,value
2019-06-26T00:02:24.975Z,100784.88
2019-06-26T00:05:27.867Z,100784.56
2019-06-26T00:08:29.784Z,100786.90
2019-06-26T00:11:31.705Z,100783.28
2019-06-26T00:14:33.727Z,100784.09
2019-06-26T00:17:35.578Z,100779.41
2019-06-26T00:20:38.517Z,100777.09
2019-06-26T00:23:40.435Z,100780.61
2019-06-26T00:26:42.442Z,100779.66
2019-06-26T00:29:44.367Z,100778.16
2019-06-26T00:32:46.349Z,100774.78
2019-06-26T00:35:48.295Z,100783.23
2019-06-26T00:38:50.542Z,100779.81
2019-06-26T00:41:52.503Z,100779.67
2019-06-26T00:44:54.671Z,100775.95
2019-06-26T00:47:56.644Z,100774.12
2019-06-26T00:50:58.591Z,100776.22
2019-06-26T00:54:00.512Z,100770.61
2019-06-26T00:57:02.448Z,100767.31
2019-06-26T01:00:08.047Z,100762.40
2019-06-26T01:03:10.267Z,100763.58
2019-06-26T01:06:14.093Z,100756.67
2019-06-26T01:09:16.075Z,100758.53
2019-06-26T01:12:18.054Z,100761.42
2019-06-26T01:15:20.076Z,100754.85
2019-06-26T01:18:22.074Z,100757.64
2019-06-26T01:21:24.797Z,100764.14
2019-06-26T01:24:26.815Z,100761.91
2019-06-26T01:27:28.863Z,100770.20
2019-06-26T01:30:30.785Z,100762.00
2019-06-26T01:33:32.640Z,100759.91
2019-06-26T01:36:34.667Z,100761.56
2019-06-26T01:39:36.524Z,100762.72
2019-06-26T01:42:38.450Z,100757.95
2019-06-26T01:45:40.594Z,100758.28
2019-06-26T01:48:42.550Z,100747.95
2019-06-26T01:51:44.472Z,100751.23
2019-06-26T01:54:46.376Z,100754.51
2019-06-26T01:57:48.282Z,100749.61
2019-06-26T02:00:50.188Z,100750.77
2019-06-26T02:03:52.755Z,100755.82
2019-06-26T02:06:54.646Z,100748.92
2019-06-26T02:09:56.666Z,100747.27
2019-06-26T02:12:58.610Z,100748.67
2019-06-26T02:16:00.619Z,100743.65
2019-06-26T02:19:04.456Z,100744.95
2019-06-26T02:22:06.405Z,100745.33
2019-06-26T02:25:08.507Z,100744.31
2019-06-26T02:28:10.525Z,100741.67
2019-06-26T02:31:12.521Z,100743.25
2019-06-26T02:34:14.782Z,100745.93
2019-06-26T02:37:16.702Z,100735.72
2019-06-26T02:40:19.152Z,100734.20
2019-06-26T02:43:21.364Z,100733.40
2019-06-26T02:46:23.549Z,100736.86
2019-06-26T02:49:25.541Z,100738.52
2019-06-26T02:52:27.426Z,100734.14
2019-06-26T02:55:29.338Z,100734.56
2019-06-26T02:58:31.314Z,100739.88
2019-06-26T03:01:33.228Z,100740.41
2019-06-26T03:04:35.167Z,100739.27
2019-06-26T03:07:37.117Z,100738.78
2019-06-26T03:10:39.108Z,100743.23
2019-06-26T03:13:40.976Z,100737.62
2019-06-26T03:16:42.982Z,100735.51
2019-06-26T03:19:44.896Z,100737.16
2019-06-26T03:22:46.854Z,100728.67
2019-06-26T03:25:48.756Z,100735.09
2019-06-26T03:28:50.744Z,100729.31
2019-06-26T03:31:53.953Z,100732.16
2019-06-26T03:34:55.933Z,100731.43
2019-06-26T03:37:57.901Z,100731.72
2019-06-26T03:40:59.949Z,100731.36
2019-06-26T03:44:01.889Z,100731.70
2019-06-26T03:47:04.063Z,100724.44
2019-06-26T03:50:06.345Z,100722.53
2019-06-26T03:53:08.340Z,100717.38
2019-06-26T03:56:10.228Z,100719.20
2019-06-26T03:59:12.234Z,100713.81
2019-06-26T04:02:14.249Z,100725.11
2019-06-26T04:05:16.180Z,100720.50
2019-06-26T04:08:18.227Z,100724.34
2019-06-26T04:11:20.101Z,100729.17
2019-06-26T04:14:22.070Z,100733.54
2019-06-26T04:17:24.040Z,100728.96
2019-06-26T04:20:25.980Z,100724.11
2019-06-26T04:23:28.392Z,100724.83
2019-06-26T04:26:30.455Z,100730.12
2019-06-26T04:29:32.392Z,100736.93
2019-06-26T04:32:34.297Z,100724.59
2019-06-26T04:35:36.275Z,100722.84
2019-06-26T04:38:38.156Z,100725.42
2019-06-26T04:41:40.095Z,100722.63
2019-06-26T04:44:42.026Z,100722.52
2019-06-26T04:47:44.228Z,100722.06
2019-06-26T04:50:46.179Z,100722.36
2019-06-26T04:53:48.183Z,100716.44
2019-06-26T04:56:50.146Z,100720.59
2019-06-26T04:59:52.141Z,100717.52
2019-06-26T05:02:54.027Z,100724.57
2019-06-26T05:05:55.973Z,100723.45
2019-06-26T05:08:57.856Z,100719.50
2019-06-26T05:11:59.867Z,100725.90
2019-06-26T05:15:03.654Z,100722.23
2019-06-26T05:18:05.610Z,100721.13
2019-06-26T05:21:07.526Z,100719.46
2019-06-26T05:24:09.527Z,100710.83
2019-06-26T05:27:11.416Z,100722.22
2019-06-26T05:30:14.076Z,100712.08
2019-06-26T05:33:15.984Z,100707.38
2019-06-26T05:36:17.968Z,100703.57
2019-06-26T05:39:20.020Z,100702.78
2019-06-26T05:42:21.927Z,100716.75
2019-06-26T05:45:23.863Z,100702.80
2019-06-26T05:48:26.032Z,100703.28
2019-06-26T05:51:28.037Z,100707.39
2019-06-26T05:54:29.991Z,100706.95
2019-06-26T05:57:31.936Z,100702.68
2019-06-26T06:00:33.910Z,100699.22
2019-06-26T06:03:35.803Z,100700.09
2019-06-26T06:06:42.163Z,100699.13
2019-06-26T06:09:41.662Z,100694.22
2019-06-26T06:12:43.654Z,100702.20
2019-06-26T06:15:45.658Z,100696.25
2019-06-26T06:18:47.616Z,100695.18
2019-06-26T06:21:49.580Z,100700.15
2019-06-26T06:24:51.503Z,100700.02
2019-06-26T06:27:56.229Z,100696.44
2019-06-26T06:30:58.216Z,100692.42
2019-06-26T06:34:00.173Z,100700.70
2019-06-26T06:37:02.114Z,100704.13
2019-06-26T06:40:08.186Z,100707.61
2019-06-26T06:43:10.060Z,100701.69
2019-06-26T06:46:12.061Z,100706.41
2019-06-26T06:49:14.099Z,100700.92
2019-06-26T06:52:16.876Z,100696.88
2019-06-26T06:55:18.943Z,100698.24
2019-06-26T06:58:20.894Z,100690.59
2019-06-26T07:01:22.798Z,100692.17
2019-06-26T07:04:24.715Z,100688.95
2019-06-26T07:07:26.659Z,100693.86
2019-06-26T07:10:28.579Z,100690.17
2019-06-26T07:13:30.554Z,100682.19
2019-06-26T07:16:32.592Z,100693.05
2019-06-26T07:19:34.579Z,100687.11
2019-06-26T07:22:36.628Z,100691.50
2019-06-26T07:25:38.556Z,100687.63
2019-06-26T07:28:40.532Z,100677.10
2019-06-26T07:31:42.456Z,100686.14
2019-06-26T07:34:44.513Z,100686.30
2019-06-26T07:37:46.462Z,100688.92
2019-06-26T07:40:48.464Z,100683.04
2019-06-26T07:43:50.337Z,100685.40
2019-06-26T07:46:52.321Z,100687.56
2019-06-26T07:49:54.404Z,100678.70
2019-06-26T07:52:56.315Z,100677.15
2019-06-26T07:55:58.265Z,100678.11
2019-06-26T07:59:00.196Z,100683.50
2019-06-26T08:02:03.476Z,100677.39
2019-06-26T08:05:06.791Z,100682.13
2019-06-26T08:08:08.744Z,100683.05
2019-06-26T08:11:10.622Z,100682.08
2019-06-26T08:14:12.591Z,100680.98
2019-06-26T08:17:14.589Z,100678.96
2019-06-26T08:20:17.063Z,100681.59
2019-06-26T08:23:19.076Z,100673.59
2019-06-26T08:26:20.982Z,100671.75
2019-06-26T08:29:23.951Z,100665.73
2019-06-26T08:32:26.167Z,100664.09
2019-06-26T08:35:28.511Z,100666.75
2019-06-26T08:38:30.506Z,100663.58
2019-06-26T08:41:32.430Z,100665.26
2019-06-26T08:44:34.398Z,100665.02
2019-06-26T08:47:36.305Z,100658.15
2019-06-26T08:50:38.350Z,100660.90
2019-06-26T08:53:40.266Z,100649.04
2019-06-26T08:56:42.221Z,100653.98
2019-06-26T08:59:44.155Z,100657.63
2019-06-26T09:02:46.697Z,100655.55
2019-06-26T09:05:48.906Z,100655.55
2019-06-26T09:08:50.910Z,100648.05
2019-06-26T09:11:52.822Z,100646.22
2019-06-26T09:14:54.829Z,100646.02
2019-06-26T09:17:56.779Z,100654.23
2019-06-26T09:20:58.766Z,100645.66
2019-06-26T09:24:00.701Z,100640.87
2019-06-26T09:27:02.710Z,100640.87
2019-06-26T09:30:06.195Z,100641.86
2019-06-26T09:33:08.303Z,100641.86
2019-06-26T09:36:10.221Z,100633.41
2019-06-26T09:39:12.194Z,100635.95
2019-06-26T09:42:14.218Z,100634.86
2019-06-26T09:45:16.397Z,100627.18
2019-06-26T09:48:18.380Z,100626.31
2019-06-26T09:51:20.535Z,100625.47
2019-06-26T09:54:22.508Z,100612.77
2019-06-26T09:57:24.479Z,100615.80
2019-06-26T10:00:27.014Z,100620.81
2019-06-26T10:03:29.099Z,100619.61
2019-06-26T10:06:31.047Z,100614.82
2019-06-26T10:09:33.096Z,100612.17
2019-06-26T10:12:35.178Z,100614.78
2019-06-26T10:15:37.093Z,100610.15
2019-06-26T10:18:39.033Z,100600.78
2019-06-26T10:21:40.958Z,100606.17
2019-06-26T10:24:42.911Z,100602.44
2019-06-26T10:27:44.954Z,100602.09
2019-06-26T10:30:48.477Z,100594.62
2019-06-26T10:33:50.386Z,100590.95
2019-06-26T10:36:52.657Z,100589.24
2019-06-26T10:39:56.025Z,100587.13
2019-06-26T10:42:59.988Z,100577.93
2019-06-26T10:46:02.704Z,100579.73
2019-06-26T10:49:04.681Z,100578.18
2019-06-26T10:52:06.740Z,100565.87
2019-06-26T10:55:10.557Z,100567.25
2019-06-26T10:58:12.440Z,100573.16
2019-06-26T11:01:14.432Z,100566.67
2019-06-26T11:04:16.349Z,100562.20
2019-06-26T11:07:18.323Z,100559.23
2019-06-26T11:10:20.630Z,100560.97
2019-06-26T11:13:22.640Z,100554.65
2019-06-26T11:16:25.915Z,100547.14
2019-06-26T11:19:42.614Z,100546.44
2019-06-26T11:22:33.179Z,100534.89
2019-06-26T11:25:35.176Z,100540.38
2019-06-26T11:28:37.182Z,100535.38
2019-06-26T11:31:39.145Z,100530.73
2019-06-26T11:34:41.061Z,100523.20
2019-06-26T11:37:43.022Z,100519.52
2019-06-26T11:40:45.001Z,100521.56
2019-06-26T11:43:47.225Z,100520.81
2019-06-26T11:46:49.104Z,100514.66
2019-06-26T11:49:59.881Z,100514.71
2019-06-26T11:52:55.269Z,100506.92
2019-06-26T11:55:57.180Z,100506.23
2019-06-26T11:58:59.262Z,100506.42
2019-06-26T12:02:01.260Z,100501.48
2019-06-26T12:05:05.425Z,100501.92
2019-06-26T12:08:08.450Z,100497.28
2019-06-26T12:11:10.377Z,100495.34
2019-06-26T12:14:12.338Z,100488.80
2019-06-26T12:17:14.866Z,100489.59
2019-06-26T12:20:19.215Z,100487.02
2019-06-26T12:23:20.811Z,100493.79
2019-06-26T12:26:22.700Z,100490.42
2019-06-26T12:29:24.667Z,100486.79
2019-06-26T12:32:27.535Z,100479.48
2019-06-26T12:35:29.539Z,100478.81
2019-06-26T12:38:31.462Z,100474.61
2019-06-26T12:41:33.389Z,100471.84
2019-06-26T12:44:35.313Z,100469.57
2019-06-26T12:47:38.358Z,100460.75
2019-06-26T12:50:40.336Z,100461.41
2019-06-26T12:53:42.873Z,100461.48
2019-06-26T12:56:44.880Z,100456.38
2019-06-26T12:59:56.858Z,100445.48
2019-06-26T13:02:50.755Z,100442.41
2019-06-26T13:05:52.681Z,100437.50
2019-06-26T13:08:54.668Z,100433.03
2019-06-26T13:11:56.691Z,100432.99
2019-06-26T13:14:58.594Z,100432.68
2019-06-26T13:18:01.553Z,100429.32
2019-06-26T13:21:05.200Z,100428.33
2019-06-26T13:24:07.534Z,100427.44
2019-06-26T13:27:09.580Z,100423.01
2019-06-26T13:30:13.900Z,100421.27
2019-06-26T13:33:15.814Z,100413.12
2019-06-26T13:36:17.776Z,100414.75
2019-06-26T13:39:19.739Z,100417.07
2019-06-26T13:42:21.708Z,100407.08
2019-06-26T13:45:24.135Z,100415.11
2019-06-26T13:48:26.138Z,100413.91
2019-06-26T13:51:28.055Z,100404.75
2019-06-26T13:54:30.647Z,100398.88
2019-06-26T13:57:32.755Z,100393.84
2019-06-26T14:00:34.816Z,100393.55
2019-06-26T14:03:36.789Z,100394.73
2019-06-26T14:06:38.675Z,100386.02
2019-06-26T14:09:40.639Z,100385.27
2019-06-26T14:12:43.184Z,100384.89
2019-06-26T14:15:45.678Z,100374.91
2019-06-26T14:18:48.083Z,100371.39
2019-06-26T14:21:49.976Z,100367.27
2019-06-26T14:24:54.233Z,100364.22
2019-06-26T14:27:55.859Z,100365.16
2019-06-26T14:30:57.803Z,100360.92
2019-06-26T14:33:59.783Z,100357.52
2019-06-26T14:37:01.690Z,100351.92
2019-06-26T14:40:08.988Z,100355.89
2019-06-26T14:43:10.958Z,100356.01
2019-06-26T14:46:12.935Z,100354.33
2019-06-26T14:49:16.147Z,100353.69
2019-06-26T14:52:18.119Z,100343.22
2019-06-26T14:55:21.805Z,100337.86
2019-06-26T14:58:23.878Z,100346.09
2019-06-26T15:01:25.817Z,100341.06
2019-06-26T15:04:27.839Z,100340.22
2019-06-26T15:07:29.763Z,100330.59
2019-06-26T15:10:33.586Z,100322.88
2019-06-26T15:13:35.505Z,100338.56
2019-06-26T15:16:37.521Z,100331.66
2019-06-26T15:19:39.460Z,100329.77
2019-06-26T15:22:41.505Z,100321.90
2019-06-26T15:25:43.506Z,100318.80
2019-06-26T15:28:45.495Z,100324.00
2019-06-26T15:31:47.464Z,100318.52
2019-06-26T15:34:49.432Z,100313.87
2019-06-26T15:37:51.338Z,100316.09
2019-06-26T15:40:53.283Z,100315.11
2019-06-26T15:43:55.313Z,100308.76
2019-06-26T15:46:57.255Z,100313.75
2019-06-26T15:49:59.883Z,100312.13
2019-06-26T15:53:01.803Z,100301.97
2019-06-26T15:56:03.982Z,100305.73
2019-06-26T15:59:05.932Z,100299.45
2019-06-26T16:02:07.932Z,100297.03
2019-06-26T16:05:09.999Z,100298.14
2019-06-26T16:08:11.973Z,100296.33
2019-06-26T16:11:15.143Z,100292.19
2019-06-26T16:14:17.129Z,100283.22
2019-06-26T16:17:39.258Z,100288.92
2019-06-26T16:20:42.427Z,100283.92
2019-06-26T16:23:44.367Z,100287.08
2019-06-26T16:26:47.094Z,100286.98
2019-06-26T16:29:49.751Z,100276.68
2019-06-26T16:32:56.686Z,100267.63
2019-06-26T16:35:57.656Z,100269.22
2019-06-26T16:39:01.043Z,100270.57
2019-06-26T16:42:04.826Z,100268.58
2019-06-26T16:45:10.403Z,100269.06
2019-06-26T16:48:12.474Z,100264.64
2019-06-26T16:51:14.384Z,100267.86
2019-06-26T16:54:16.430Z,100264.14
2019-06-26T16:57:18.785Z,100258.63
2019-06-26T17:00:20.872Z,100260.48
2019-06-26T17:03:22.902Z,100250.86
2019-06-26T17:06:26.733Z,100256.72
2019-06-26T17:09:28.908Z,100252.98
2019-06-26T17:12:30.972Z,100248.81
2019-06-26T17:15:32.855Z,100253.54
2019-06-26T17:18:34.863Z,100246.00
2019-06-26T17:21:36.817Z,100246.06
2019-06-26T17:24:38.796Z,100248.30
2019-06-26T17:27:40.840Z,100245.45
2019-06-26T17:30:44.501Z,100242.91
2019-06-26T17:33:46.795Z,100241.07
2019-06-26T17:36:48.799Z,100241.59
2019-06-26T17:39:50.812Z,100238.77
2019-06-26T17:42:53.967Z,100244.14
2019-06-26T17:45:55.935Z,100238.80
2019-06-26T17:48:59.002Z,100235.81
2019-06-26T17:52:01.980Z,100236.02
2019-06-26T17:55:06.413Z,100234.44
2019-06-26T17:58:10.189Z,100238.42
2019-06-26T18:01:14.728Z,100228.00
2019-06-26T18:04:16.704Z,100233.59
2019-06-26T18:07:18.659Z,100230.47
2019-06-26T18:10:20.639Z,100227.27
2019-06-26T18:13:24.147Z,100230.72
2019-06-26T18:16:26.154Z,100230.42
2019-06-26T18:19:30.734Z,100226.02
2019-06-26T18:22:32.675Z,100227.08
2019-06-26T18:25:34.688Z,100226.17
2019-06-26T18:28:36.642Z,100219.81
2019-06-26T18:31:38.675Z,100215.89
2019-06-26T18:34:40.646Z,100210.41
2019-06-26T18:37:42.657Z,100213.97
2019-06-26T18:40:46.276Z,100220.70
2019-06-26T18:43:48.238Z,100221.20
2019-06-26T18:46:50.818Z,100227.97
2019-06-26T18:49:52.825Z,100227.63
2019-06-26T18:52:54.797Z,100222.34
2019-06-26T18:55:58.128Z,100224.10
2019-06-26T18:59:01.700Z,100224.33
2019-06-26T19:02:05.523Z,100224.63
2019-06-26T19:05:10.389Z,100223.71
2019-06-26T19:08:12.555Z,100218.14
2019-06-26T19:11:14.561Z,100221.88
2019-06-26T19:14:16.583Z,100220.78
2019-06-26T19:17:20.432Z,100225.39
2019-06-26T19:20:22.511Z,100229.34
2019-06-26T19:23:24.529Z,100228.05
2019-06-26T19:26:27.565Z,100231.97
2019-06-26T19:29:29.670Z,100230.19
2019-06-26T19:32:31.666Z,100229.81
2019-06-26T19:35:33.726Z,100234.69
2019-06-26T19:38:35.711Z,100233.58
2019-06-26T19:41:37.787Z,100230.73
2019-06-26T19:44:39.916Z,100229.98
2019-06-26T19:47:42.245Z,100232.88
2019-06-26T19:50:44.259Z,100238.61
2019-06-26T19:53:47.793Z,100235.62
2019-06-26T19:56:50.167Z,100234.44
2019-06-26T19:59:52.381Z,100235.45
2019-06-26T20:02:54.389Z,100233.45
2019-06-26T20:05:56.450Z,100231.22
2019-06-26T20:08:58.416Z,100235.52
2019-06-26T20:12:00.772Z,100238.14
2019-06-26T20:15:04.668Z,100231.69
2019-06-26T20:18:06.666Z,100226.22
2019-06-26T20:21:08.668Z,100224.20
2019-06-26T20:24:14.226Z,100229.45
2019-06-26T20:27:17.109Z,100221.77
2019-06-26T20:30:22.750Z,100230.66
2019-06-26T20:33:26.598Z,100229.66
2019-06-26T20:36:28.561Z,100228.62
2019-06-26T20:39:31.022Z,100231.24
2019-06-26T20:42:32.938Z,100223.53
2019-06-26T20:45:34.952Z,100221.09
2019-06-26T20:48:36.880Z,100220.91
2019-06-26T20:51:40.052Z,100229.36
2019-06-26T20:54:56.811Z,100221.03
2019-06-26T20:57:48.881Z,100221.61
2019-06-26T21:00:51.056Z,100221.41
2019-06-26T21:03:54.921Z,100221.61
2019-06-26T21:06:56.801Z,100219.62
2019-06-26T21:09:58.811Z,100214.16
2019-06-26T21:13:03.316Z,100222.03
2019-06-26T21:16:07.522Z,100221.45
2019-06-26T21:19:09.431Z,100227.49
2019-06-26T21:22:12.779Z,100231.55
2019-06-26T21:25:18.956Z,100233.98
2019-06-26T21:28:18.552Z,100236.23
2019-06-26T21:31:20.481Z,100229.55
2019-06-26T21:34:22.488Z,100236.43
2019-06-26T21:37:24.500Z,100238.06
2019-06-26T21:40:26.380Z,100237.66
2019-06-26T21:43:28.412Z,100237.04
2019-06-26T21:46:30.376Z,100238.65
2019-06-26T21:49:32.376Z,100244.49
2019-06-26T21:52:34.380Z,100247.13
2019-06-26T21:55:36.565Z,100245.91
2019-06-26T21:58:56.656Z,100247.92
2019-06-26T22:02:17.519Z,100252.52
2019-06-26T22:05:22.750Z,100252.70
2019-06-26T22:08:42.911Z,100250.85
2019-06-26T22:11:45.083Z,100253.59
2019-06-26T22:14:47.099Z,100249.97
2019-06-26T22:17:48.997Z,100251.98
2019-06-26T22:20:50.986Z,100252.17
2019-06-26T22:23:53.170Z,100251.98
2019-06-26T22:26:56.170Z,100253.95
2019-06-26T22:29:58.189Z,100259.61
2019-06-26T22:33:00.129Z,100258.98
2019-06-26T22:36:02.098Z,100257.56
2019-06-26T22:39:05.131Z,100258.97
2019-06-26T22:42:07.853Z,100262.36
2019-06-26T22:45:10.165Z,100265.97
2019-06-26T22:48:12.052Z,100276.64
2019-06-26T22:51:14.094Z,100285.06
2019-06-26T22:54:19.570Z,100278.05
2019-06-26T22:57:19.992Z,100275.22
2019-06-26T23:00:22.231Z,100285.11
2019-06-26T23:03:24.280Z,100284.08
2019-06-26T23:06:26.236Z,100281.05
2019-06-26T23:09:28.253Z,100276.81
2019-06-26T23:12:30.204Z,100276.02
2019-06-26T23:15:32.216Z,100271.55
2019-06-26T23:18:34.125Z,100276.15
2019-06-26T23:21:36.086Z,100270.28
2019-06-26T23:24:37.985Z,100273.72
2019-06-26T23:27:39.996Z,100272.69
2019-06-26T23:30:41.976Z,100275.08
2019-06-26T23:33:44.019Z,100276.61
2019-06-26T23:36:45.972Z,100278.36
2019-06-26T23:39:47.944Z,100277.10
2019-06-26T23:42:49.858Z,100283.10
2019-06-26T23:45:52.267Z,100285.49
2019-06-26T23:48:54.200Z,100287.66
2019-06-26T23:51:56.152Z,100294.23
2019-06-26T23:54:58.127Z,100298.99
2019-06-26T23:58:00.104Z,100297.87
